Time;durP1;ratioP1;P1;durP2;ratioP2;P2;SDS_P1;SDS_P2;PMS_P1;PMS_P2;Temp;Humidity;BMP_temperature;BMP_pressure;BME280_temperature;BME280_humidity;BME280_pressure;Samples;Min_cycle;Max_cycle;Signal;HPM_P1;HPM_P2
2022/05/23 00:02:06;;;;;;;;;;;;;;;6.14;67.69;101221.23;1687379;82;20311;-85
2022/05/23 00:04:36;;;;;;;;;;;;;;;5.81;67.72;101165.09;1687529;82;20538;-85
2022/05/23 00:07:01;;;;;;;;;;;;;;;6.08;67.81;101210.45;1687784;82;22598;-85
2022/05/23 00:09:29;;;;;;;;;;;;;;;6.03;67.83;101208.51;1687833;82;20180;-85
2022/05/23 00:11:55;;;;;;;;;;;;;;;5.98;67.86;101211.70;1687685;82;20211;-85
2022/05/23 00:14:21;;;;;;;;;;;;;;;5.94;67.86;101205.81;1668387;82;20380;-86
2022/05/23 00:16:49;;;;;;;;;;;;;;;5.88;67.94;101206.39;1668163;84;20170;-86
2022/05/23 00:19:16;;;;;;;;;;;;;;;5.84;68.04;101211.87;1653010;84;22062;-85
2022/05/23 00:21:45;;;;;;;;;;;;;;;5.80;68.13;101212.53;1675490;84;20193;-85
2022/05/23 00:24:13;;;;;;;;;;;;;;;5.76;68.30;101212.28;1671333;84;20234;-85
2022/05/23 00:26:47;;;;;;;;;;;;;;;5.72;68.38;101213.83;1666515;84;21183;-85
2022/05/23 00:29:10;;;;;;;;;;;;;;;5.67;68.46;101213.11;1670756;84;21083;-86
2022/05/23 00:35:17;;;;;;;;;;;;;;;5.63;68.61;101216.88;1674690;84;22560;-86
2022/05/23 00:36:50;;;;;;;;;;;;;;;5.59;68.90;101214.94;1653287;84;20777;-86
2022/05/23 00:39:16;;;;;;;;;;;;;;;5.57;69.01;101213.92;1674706;84;20559;-85
2022/05/23 00:44:34;;;;;;;;;;;;;;;5.54;69.13;101208.56;1674873;84;21958;-86
2022/05/23 00:47:00;;;;;;;;;;;;;;;5.50;69.10;101214.83;1654405;84;20177;-85
2022/05/23 00:49:29;;;;;;;;;;;;;;;5.47;69.22;101215.58;1661760;84;20171;-85
2022/05/23 00:51:55;;;;;;;;;;;;;;;5.43;69.23;101213.20;1669599;84;21797;-85
2022/05/23 00:54:22;;;;;;;;;;;;;;;5.39;69.35;101208.64;1666144;84;20197;-85
2022/05/23 00:56:49;;;;;;;;;;;;;;;5.40;69.52;101208.23;1659908;84;21807;-85
2022/05/23 00:59:18;;;;;;;;;;;;;;;5.39;69.54;101207.76;1648845;85;20319;-85
2022/05/23 01:01:45;;;;;;;;;;;;;;;5.38;69.63;101205.53;1677014;84;20202;-86
2022/05/23 01:04:12;;;;;;;;;;;;;;;5.39;69.79;101203.84;1667513;84;20996;-86
2022/05/23 01:06:38;;;;;;;;;;;;;;;5.40;69.87;101200.39;1669950;84;20190;-86
2022/05/23 01:09:05;;;;;;;;;;;;;;;5.42;70.00;101194.46;1658735;84;21657;-86
2022/05/23 01:11:31;;;;;;;;;;;;;;;5.47;70.05;101191.19;1648532;85;20518;-86
2022/05/23 01:13:57;;;;;;;;;;;;;;;5.49;70.02;101198.28;1666047;84;20178;-86
2022/05/23 01:16:24;;;;;;;;;;;;;;;5.52;70.08;101198.83;1675510;84;21525;-85
2022/05/23 01:18:51;;;;;;;;;;;;;;;5.55;70.04;101200.31;1677866;84;20776;-86
2022/05/23 01:21:26;;;;;;;;;;;;;;;5.59;70.06;101201.88;1673575;84;22615;-86
2022/05/23 01:24:02;;;;;;;;;;;;;;;5.61;70.05;101201.93;1683661;84;20246;-86
2022/05/23 01:26:31;;;;;;;;;;;;;;;5.63;70.10;101205.12;1685355;84;20233;-86
2022/05/23 01:28:58;;;;;;;;;;;;;;;5.66;70.15;101208.30;1707555;82;21038;-86
2022/05/23 01:31:24;;;;;;;;;;;;;;;5.67;70.16;101204.88;1685674;83;20991;-86
2022/05/23 01:33:50;;;;;;;;;;;;;;;5.70;70.17;101206.75;1682725;84;22768;-86
2022/05/23 01:36:17;;;;;;;;;;;;;;;5.72;70.21;101211.22;1685098;84;20221;-86
2022/05/23 01:38:43;;;;;;;;;;;;;;;5.74;70.24;101211.30;1685317;83;20361;-86
2022/05/23 01:41:09;;;;;;;;;;;;;;;5.74;70.26;101210.89;1685562;84;20408;-85
2022/05/23 01:43:36;;;;;;;;;;;;;;;5.75;70.25;101212.70;1683876;83;20212;-85
2022/05/23 01:46:30;;;;;;;;;;;;;;;5.76;70.27;101208.36;1685634;83;21765;-86
2022/05/23 01:48:52;;;;;;;;;;;;;;;5.74;70.31;101213.50;1677348;80;20182;-85
2022/05/23 01:51:19;;;;;;;;;;;;;;;5.73;70.29;101205.61;1690575;80;20829;-85
2022/05/23 01:53:45;;;;;;;;;;;;;;;5.72;70.31;101208.61;1687821;84;20422;-85
2022/05/23 01:56:12;;;;;;;;;;;;;;;5.72;70.39;101205.99;1685253;83;20238;-85
2022/05/23 02:01:25;;;;;;;;;;;;;;;5.73;70.44;101206.50;1686479;84;20221;-86
2022/05/23 02:03:52;;;;;;;;;;;;;;;5.75;70.49;101205.28;1685672;84;20241;-85
2022/05/23 02:06:18;;;;;;;;;;;;;;;5.76;70.53;101207.05;1685850;84;20527;-86
2022/05/23 02:08:44;;;;;;;;;;;;;;;5.77;70.57;101203.22;1685934;83;20939;-85
2022/05/23 02:11:11;;;;;;;;;;;;;;;5.79;70.60;101205.91;1685732;83;21741;-86
2022/05/23 02:13:40;;;;;;;;;;;;;;;5.80;70.64;101203.77;1658367;82;20573;-85
2022/05/23 02:16:08;;;;;;;;;;;;;;;5.81;70.59;101208.20;1673421;83;20204;-86
2022/05/23 02:18:35;;;;;;;;;;;;;;;5.83;70.61;101200.91;1687968;82;20430;-86
2022/05/23 02:21:04;;;;;;;;;;;;;;;5.84;70.62;101203.14;1661664;84;20199;-86
2022/05/23 02:23:29;;;;;;;;;;;;;;;5.84;70.66;101201.42;1693099;84;21779;-85
2022/05/23 02:25:56;;;;;;;;;;;;;;;5.85;70.61;101199.69;1692571;82;20345;-85
2022/05/23 02:28:22;;;;;;;;;;;;;;;5.85;70.59;101201.00;1692388;82;20192;-85
2022/05/23 02:30:49;;;;;;;;;;;;;;;5.86;70.61;101202.81;1687782;82;20374;-85
2022/05/23 02:33:15;;;;;;;;;;;;;;;5.85;70.62;101211.45;1688075;82;20217;-87
2022/05/23 02:35:42;;;;;;;;;;;;;;;5.87;70.65;101207.20;1687436;82;22656;-84
2022/05/23 02:38:08;;;;;;;;;;;;;;;5.87;70.68;101203.70;1687507;82;20820;-85
2022/05/23 02:40:35;;;;;;;;;;;;;;;5.90;70.77;101198.22;1690552;82;20220;-84
2022/05/23 02:43:01;;;;;;;;;;;;;;;5.95;70.84;101201.05;1689278;83;21164;-84
2022/05/23 02:45:28;;;;;;;;;;;;;;;5.98;70.91;101194.72;1681879;82;20949;-86
2022/05/23 02:47:57;;;;;;;;;;;;;;;6.05;70.91;101198.55;1680512;84;20192;-85
2022/05/23 02:50:25;;;;;;;;;;;;;;;6.09;70.91;101200.08;1688573;84;20253;-86
2022/05/23 02:52:51;;;;;;;;;;;;;;;6.14;70.90;101199.91;1690716;84;20233;-85
2022/05/23 02:55:18;;;;;;;;;;;;;;;6.18;70.89;101197.92;1685826;84;20348;-84
2022/05/23 02:57:44;;;;;;;;;;;;;;;6.24;70.89;101202.56;1690334;83;21003;-85
2022/05/23 03:00:12;;;;;;;;;;;;;;;6.29;70.92;101202.39;1692255;84;21698;-86
2022/05/23 03:05:29;;;;;;;;;;;;;;;6.36;70.95;101200.57;1688703;84;20628;-85
2022/05/23 03:07:55;;;;;;;;;;;;;;;6.43;71.10;101202.64;1685965;83;20855;-85
2022/05/23 03:10:21;;;;;;;;;;;;;;;6.52;71.19;101206.55;1695866;82;20494;-85
2022/05/23 03:12:47;;;;;;;;;;;;;;;6.60;71.30;101205.19;1690432;84;21750;-84
2022/05/23 03:15:16;;;;;;;;;;;;;;;6.74;71.34;101202.83;1676922;83;20212;-85
2022/05/23 03:17:42;;;;;;;;;;;;;;;6.82;71.19;101200.58;1702655;83;20192;-86
2022/05/23 03:20:10;;;;;;;;;;;;;;;6.89;71.20;101196.51;1696132;82;20337;-86
2022/05/23 03:28:06;;;;;;;;;;;;;;;7.20;71.24;101194.48;1689671;83;20197;-84
2022/05/23 03:30:45;;;;;;;;;;;;;;;7.44;71.25;101198.17;1690635;82;20922;-85
2022/05/23 03:33:07;;;;;;;;;;;;;;;7.83;71.60;101199.42;1692326;83;20870;-84
2022/05/23 03:35:36;;;;;;;;;;;;;;;8.89;72.69;101202.50;1670072;83;20560;-85
2022/05/23 03:38:02;;;;;;;;;;;;;;;10.31;72.46;101185.75;1694458;83;22616;-85
2022/05/23 03:40:56;;;;;;;;;;;;;;;12.05;71.92;101188.27;1693793;83;20216;-85
2022/05/23 03:43:07;;;;;;;;;;;;;;;13.68;69.78;101183.56;1676424;83;20990;-86
2022/05/23 03:45:37;;;;;;;;;;;;;;;15.25;67.79;101186.11;1686338;83;20393;-85
2022/05/23 03:48:04;;;;;;;;;;;;;;;16.60;65.85;101182.17;1694006;83;20516;-87
2022/05/23 03:50:31;;;;;;;;;;;;;;;17.81;63.78;101175.65;1694185;83;21733;-86
2022/05/23 03:53:00;;;;;;;;;;;;;;;18.89;61.89;101177.05;1686594;82;20859;-87
2022/05/23 03:55:29;;;;;;;;;;;;;;;19.93;60.00;101175.69;1694332;83;20264;-88
2022/05/23 03:57:54;;;;;;;;;;;;;;;20.59;57.75;101169.36;1703803;82;20326;-83
2022/05/23 04:00:21;;;;;;;;;;;;;;;21.26;56.27;101166.84;1695844;82;20229;-84
2022/05/23 04:02:50;;;;;;;;;;;;;;;21.92;55.07;101166.41;1677701;83;22481;-84
2022/05/23 04:05:20;;;;;;;;;;;;;;;22.45;53.46;101170.53;1678008;83;21006;-84
2022/05/23 04:07:47;;;;;;;;;;;;;;;23.11;52.45;101168.42;1710482;81;20241;-84
2022/05/23 04:10:16;;;;;;;;;;;;;;;23.86;51.26;101174.41;1713255;81;21268;-85
2022/05/23 04:12:43;;;;;;;;;;;;;;;24.52;49.77;101168.34;1679238;83;20772;-85
2022/05/23 04:15:10;;;;;;;;;;;;;;;25.10;48.90;101174.81;1711402;82;21739;-84
2022/05/23 04:17:37;;;;;;;;;;;;;;;25.69;47.39;101170.41;1714625;83;20963;-86
2022/05/23 04:20:08;;;;;;;;;;;;;;;25.99;46.16;101172.61;1707619;83;20253;-88
2022/05/23 04:22:38;;;;;;;;;;;;;;;26.32;45.35;101173.80;1675896;83;20194;-88
2022/05/23 04:25:17;;;;;;;;;;;;;;;27.00;44.57;101171.44;1712433;81;20235;-88
2022/05/23 04:27:50;;;;;;;;;;;;;;;27.59;43.55;101171.02;1671984;83;22251;-85
2022/05/23 04:30:16;;;;;;;;;;;;;;;28.35;42.90;101167.97;1705690;81;20265;-85
2022/05/23 04:35:31;;;;;;;;;;;;;;;29.21;40.58;101168.28;1692798;83;20449;-85
2022/05/23 04:38:06;;;;;;;;;;;;;;;29.75;40.17;101157.59;1713890;83;20235;-85
2022/05/23 04:40:27;;;;;;;;;;;;;;;30.21;38.74;101155.31;1708933;83;21757;-86
2022/05/23 04:42:59;;;;;;;;;;;;;;;30.48;38.11;101153.52;1708466;81;20251;-86
2022/05/23 04:45:25;;;;;;;;;;;;;;;30.75;37.51;101156.14;1703395;83;20239;-85
2022/05/23 04:50:43;;;;;;;;;;;;;;;31.87;36.73;101159.09;1717890;81;20209;-82
2022/05/23 04:53:14;;;;;;;;;;;;;;;32.81;35.56;101148.08;1705503;83;21788;-84
2022/05/23 04:55:43;;;;;;;;;;;;;;;33.05;34.67;101149.77;1702485;83;20274;-89
2022/05/23 04:58:12;;;;;;;;;;;;;;;33.43;34.39;101156.00;1713781;81;20216;-87
2022/05/23 05:00:43;;;;;;;;;;;;;;;33.67;33.37;101154.45;1711867;82;21249;-87
2022/05/23 05:03:08;;;;;;;;;;;;;;;34.05;33.13;101155.58;1672176;83;20780;-84
2022/05/23 05:05:35;;;;;;;;;;;;;;;34.63;32.44;101152.98;1707506;83;21804;-84
2022/05/23 05:08:03;;;;;;;;;;;;;;;34.60;31.41;101150.45;1706766;81;20215;-84
2022/05/23 05:10:29;;;;;;;;;;;;;;;34.39;31.37;101152.83;1712013;83;20235;-83
2022/05/23 05:12:59;;;;;;;;;;;;;;;34.64;31.19;101151.98;1703551;83;20336;-84
2022/05/23 05:15:26;;;;;;;;;;;;;;;34.84;30.59;101151.13;1708255;83;20600;-84
2022/05/23 05:17:52;;;;;;;;;;;;;;;34.71;30.26;101155.68;1669538;84;21935;-84
2022/05/23 05:20:18;;;;;;;;;;;;;;;34.86;29.73;101160.09;1690023;82;20503;-84
2022/05/23 05:22:45;;;;;;;;;;;;;;;34.81;29.72;101155.43;1688653;83;20291;-84
2022/05/23 05:25:12;;;;;;;;;;;;;;;34.91;29.14;101164.72;1696265;82;20307;-84
2022/05/23 05:27:39;;;;;;;;;;;;;;;34.82;28.80;101162.16;1689548;82;21092;-84
2022/05/23 05:30:07;;;;;;;;;;;;;;;34.47;28.32;101159.13;1689567;82;22818;-84
2022/05/23 05:32:55;;;;;;;;;;;;;;;34.01;28.00;101150.84;1691050;82;20204;-83
2022/05/23 05:35:34;;;;;;;;;;;;;;;33.74;28.39;101149.45;1692702;82;20922;-84
2022/05/23 05:38:04;;;;;;;;;;;;;;;31.97;27.23;101151.67;1693661;82;20390;-83
2022/05/23 05:40:31;;;;;;;;;;;;;;;29.05;27.95;101147.72;1690463;82;20749;-84
2022/05/23 05:43:04;;;;;;;;;;;;;;;26.78;29.00;101153.78;1696306;82;22576;-83
2022/05/23 05:45:46;;;;;;;;;;;;;;;24.70;30.46;101152.15;1691691;83;20950;-84
2022/05/23 05:48:12;;;;;;;;;;;;;;;22.93;31.87;101162.45;1688717;82;20300;-84
2022/05/23 05:50:39;;;;;;;;;;;;;;;21.66;33.48;101162.78;1696546;82;20370;-83
2022/05/23 05:53:15;;;;;;;;;;;;;;;20.84;34.83;101163.78;1691075;83;20344;-83
2022/05/23 05:55:41;;;;;;;;;;;;;;;20.12;35.73;101157.73;1695114;82;21877;-83
2022/05/23 05:58:08;;;;;;;;;;;;;;;19.30;36.79;101157.34;1688900;82;20493;-83
2022/05/23 06:00:34;;;;;;;;;;;;;;;18.69;37.70;101162.37;1688287;82;20623;-85
2022/05/23 06:03:00;;;;;;;;;;;;;;;17.93;38.58;101166.39;1688744;82;20437;-83
2022/05/23 06:05:27;;;;;;;;;;;;;;;17.44;39.75;101165.80;1693827;82;20645;-83
2022/05/23 06:13:22;;;;;;;;;;;;;;;16.43;41.54;101178.50;1687431;82;20195;-83
2022/05/23 06:15:49;;;;;;;;;;;;;;;16.19;42.18;101173.42;1692494;82;20445;-82
2022/05/23 06:18:15;;;;;;;;;;;;;;;16.01;42.64;101175.91;1691991;82;20251;-82
2022/05/23 06:20:42;;;;;;;;;;;;;;;15.76;42.94;101175.67;1699568;82;21780;-83
2022/05/23 06:23:09;;;;;;;;;;;;;;;15.61;43.45;101180.78;1694830;82;20190;-83
2022/05/23 06:25:36;;;;;;;;;;;;;;;15.28;43.26;101185.72;1696266;82;20189;-84
2022/05/23 06:28:05;;;;;;;;;;;;;;;15.06;43.86;101183.66;1694338;82;21580;-83
2022/05/23 06:30:31;;;;;;;;;;;;;;;14.93;44.08;101184.80;1697616;82;20210;-83
2022/05/23 06:32:57;;;;;;;;;;;;;;;14.88;44.50;101189.58;1697499;82;21743;-82
2022/05/23 06:35:24;;;;;;;;;;;;;;;14.84;44.71;101190.41;1706786;82;20542;-82
2022/05/23 06:37:53;;;;;;;;;;;;;;;14.74;44.99;101193.36;1703037;82;20378;-83
2022/05/23 06:40:20;;;;;;;;;;;;;;;14.70;44.65;101194.19;1699423;82;20517;-82
2022/05/23 06:42:47;;;;;;;;;;;;;;;14.48;44.92;101152.74;1699852;82;20514;-83
2022/05/23 06:45:13;;;;;;;;;;;;;;;14.76;45.01;101200.45;1703221;82;22599;-83
2022/05/23 06:47:39;;;;;;;;;;;;;;;14.67;45.02;101199.43;1702996;82;20221;-82
2022/05/23 06:50:06;;;;;;;;;;;;;;;14.55;45.16;101201.43;1702715;82;21015;-83
2022/05/23 06:52:33;;;;;;;;;;;;;;;14.53;45.25;101198.75;1702871;82;20395;-83
2022/05/23 06:55:00;;;;;;;;;;;;;;;14.53;44.98;101203.16;1702913;82;20216;-82
2022/05/23 06:57:26;;;;;;;;;;;;;;;14.57;45.12;101208.55;1702676;82;21915;-83
2022/05/23 06:59:53;;;;;;;;;;;;;;;14.64;45.26;101209.55;1702567;82;20248;-82
2022/05/23 07:02:19;;;;;;;;;;;;;;;14.65;45.21;101210.44;1702654;82;20732;-83
2022/05/23 07:13:01;;;;;;;;;;;;;;;14.63;45.63;101208.20;1702210;82;20916;-83
2022/05/23 07:15:27;;;;;;;;;;;;;;;14.61;45.68;101202.87;1694163;82;20264;-84
2022/05/23 07:17:53;;;;;;;;;;;;;;;14.67;45.49;101207.38;1693698;82;20372;-83
2022/05/23 07:20:20;;;;;;;;;;;;;;;14.70;45.40;101204.78;1689068;82;20201;-83
2022/05/23 07:22:46;;;;;;;;;;;;;;;14.72;45.33;101207.02;1687188;82;21694;-83
2022/05/23 07:25:13;;;;;;;;;;;;;;;14.77;45.11;101204.90;1687531;82;21009;-82
2022/05/23 07:27:39;;;;;;;;;;;;;;;14.83;45.17;101196.56;1687801;82;20875;-83
2022/05/23 07:30:06;;;;;;;;;;;;;;;14.87;45.02;101200.62;1687743;82;21225;-83
2022/05/23 07:32:33;;;;;;;;;;;;;;;14.79;44.57;101206.25;1687916;82;20753;-83
2022/05/23 07:34:59;;;;;;;;;;;;;;;14.69;44.58;101206.52;1689598;82;21753;-82
2022/05/23 07:37:27;;;;;;;;;;;;;;;14.65;44.72;101198.52;1703658;82;20206;-83
2022/05/23 07:39:56;;;;;;;;;;;;;;;14.71;45.01;101206.55;1689617;82;20193;-83
2022/05/23 07:42:22;;;;;;;;;;;;;;;14.74;44.86;101199.98;1672726;85;20399;-83
2022/05/23 07:44:49;;;;;;;;;;;;;;;14.72;44.92;101195.09;1673821;84;21041;-83
2022/05/23 07:47:16;;;;;;;;;;;;;;;14.73;44.90;101192.89;1668684;84;21823;-83
2022/05/23 07:49:44;;;;;;;;;;;;;;;14.76;45.19;101195.59;1675434;84;21649;-82
2022/05/23 07:52:17;;;;;;;;;;;;;;;14.80;45.12;101191.23;1675225;84;20386;-83
2022/05/23 08:00:31;;;;;;;;;;;;;;;14.73;45.03;101191.56;1677304;84;22570;-83
2022/05/23 08:03:17;;;;;;;;;;;;;;;14.74;45.20;101189.39;1648399;85;20227;-83
2022/05/23 08:05:43;;;;;;;;;;;;;;;14.76;45.28;101189.85;1671712;84;20260;-82
2022/05/23 08:08:09;;;;;;;;;;;;;;;14.78;45.47;101189.44;1671019;84;20386;-83
2022/05/23 08:10:36;;;;;;;;;;;;;;;14.82;45.66;101186.84;1675308;84;20357;-83
2022/05/23 08:13:08;;;;;;;;;;;;;;;14.94;45.85;101189.66;1669045;84;21755;-82
2022/05/23 08:15:31;;;;;;;;;;;;;;;15.05;45.85;101185.39;1671968;84;20213;-82
2022/05/23 08:17:58;;;;;;;;;;;;;;;15.14;45.77;101183.31;1665959;84;20207;-83
2022/05/23 08:20:25;;;;;;;;;;;;;;;15.18;45.41;101179.82;1666265;84;21040;-83
2022/05/23 08:22:54;;;;;;;;;;;;;;;15.19;45.38;101176.31;1664178;84;20789;-83
2022/05/23 08:25:19;;;;;;;;;;;;;;;14.87;45.21;101122.88;1642747;86;21853;-82
2022/05/23 08:27:46;;;;;;;;;;;;;;;15.13;45.21;101180.22;1686344;83;20716;-83
2022/05/23 08:30:13;;;;;;;;;;;;;;;15.11;45.34;101177.98;1691110;83;20952;-82
2022/05/23 08:32:39;;;;;;;;;;;;;;;15.11;45.26;101172.69;1670985;84;20360;-82
2022/05/23 08:35:08;;;;;;;;;;;;;;;15.10;45.31;101171.77;1681485;84;20206;-83
2022/05/23 08:37:35;;;;;;;;;;;;;;;15.14;45.44;101170.05;1681285;85;22068;-83
2022/05/23 08:40:01;;;;;;;;;;;;;;;15.24;45.58;101171.97;1680637;83;21116;-83
2022/05/23 08:42:34;;;;;;;;;;;;;;;15.19;45.41;101155.55;1680750;83;20257;-83
2022/05/23 08:45:15;;;;;;;;;;;;;;;15.31;45.27;101171.14;1658526;85;20624;-83
2022/05/23 08:48:03;;;;;;;;;;;;;;;15.35;45.17;101170.34;1680778;84;20231;-83
2022/05/23 08:50:52;;;;;;;;;;;;;;;15.42;45.12;101165.98;1668953;84;21766;-82
2022/05/23 08:53:31;;;;;;;;;;;;;;;15.49;45.20;101165.18;1639984;86;20213;-83
2022/05/23 08:56:06;;;;;;;;;;;;;;;15.52;45.05;101166.55;1685290;83;20264;-83
2022/05/23 08:58:42;;;;;;;;;;;;;;;15.58;45.15;101161.75;1670271;84;20381;-83
2022/05/23 09:01:13;;;;;;;;;;;;;;;15.69;45.18;101156.53;1661077;84;20566;-82
2022/05/23 09:03:53;;;;;;;;;;;;;;;15.80;45.17;101152.70;1680364;83;21866;-83
2022/05/23 09:06:26;;;;;;;;;;;;;;;15.84;44.92;101154.09;1680048;83;20895;-83
2022/05/23 09:08:53;;;;;;;;;;;;;;;15.92;45.21;101143.55;1679819;83;20254;-83
2022/05/23 09:11:26;;;;;;;;;;;;;;;16.03;45.13;101142.30;1663128;85;20367;-83
2022/05/23 09:13:53;;;;;;;;;;;;;;;16.09;45.44;101134.41;1638884;85;20236;-83
2022/05/23 09:16:19;;;;;;;;;;;;;;;16.22;45.83;101131.42;1639121;87;22409;-83
2022/05/23 09:18:53;;;;;;;;;;;;;;;16.35;45.77;101128.39;1658232;84;20868;-83
2022/05/23 09:21:19;;;;;;;;;;;;;;;16.41;45.30;101123.14;1650742;85;20232;-83
2022/05/23 09:23:52;;;;;;;;;;;;;;;16.39;44.93;101125.78;1654552;84;21729;-83
2022/05/23 09:26:29;;;;;;;;;;;;;;;16.37;45.43;101119.57;1652667;85;20271;-83
2022/05/23 09:28:55;;;;;;;;;;;;;;;16.43;45.56;101120.05;1658114;85;21771;-83
2022/05/23 09:31:49;;;;;;;;;;;;;;;16.53;45.51;101116.56;1636779;86;20182;-83
2022/05/23 09:34:30;;;;;;;;;;;;;;;16.66;45.51;101118.41;1658268;84;20186;-83
2022/05/23 09:36:56;;;;;;;;;;;;;;;16.79;45.35;101119.83;1660426;85;20309;-82
2022/05/23 09:39:24;;;;;;;;;;;;;;;16.97;45.33;101119.04;1660013;85;20668;-83
2022/05/23 09:47:44;;;;;;;;;;;;;;;17.16;44.52;101116.05;1653362;84;20216;-83
2022/05/23 09:50:12;;;;;;;;;;;;;;;17.08;44.32;101109.37;1655541;85;20408;-82
2022/05/23 09:52:42;;;;;;;;;;;;;;;17.14;44.39;101103.19;1656120;85;20194;-83
2022/05/23 09:55:16;;;;;;;;;;;;;;;17.21;44.34;101112.52;1651326;85;21766;-83
2022/05/23 09:57:45;;;;;;;;;;;;;;;17.25;44.49;101100.12;1639378;85;20924;-82
2022/05/23 10:00:22;;;;;;;;;;;;;;;17.37;44.58;101100.59;1633748;85;21047;-82
2022/05/23 10:02:52;;;;;;;;;;;;;;;17.48;44.46;101098.84;1655303;85;20398;-82
2022/05/23 10:05:25;;;;;;;;;;;;;;;17.51;44.39;101091.30;1647715;84;20323;-83
2022/05/23 10:07:58;;;;;;;;;;;;;;;17.50;44.53;101098.39;1656099;85;21776;-82
2022/05/23 10:10:29;;;;;;;;;;;;;;;17.48;44.36;101090.41;1656685;84;21369;-83
2022/05/23 10:13:25;;;;;;;;;;;;;;;17.39;44.62;101094.37;1651701;85;20236;-82
2022/05/23 10:15:54;;;;;;;;;;;;;;;17.38;44.82;101096.61;1637532;85;20375;-83
2022/05/23 10:18:27;;;;;;;;;;;;;;;17.32;44.71;101089.91;1658761;85;20995;-83
2022/05/23 10:21:01;;;;;;;;;;;;;;;17.18;44.76;101092.55;1689539;84;22654;-84
2022/05/23 10:23:28;;;;;;;;;;;;;;;17.08;44.79;101089.42;1684366;84;21335;-84
2022/05/23 10:26:15;;;;;;;;;;;;;;;17.05;45.04;101085.41;1685862;84;20503;-83
2022/05/23 10:29:00;;;;;;;;;;;;;;;17.03;45.02;101076.09;1688964;84;20313;-83
2022/05/23 10:31:38;;;;;;;;;;;;;;;16.99;45.26;101078.75;1690349;84;20209;-83
2022/05/23 10:34:11;;;;;;;;;;;;;;;16.98;45.08;101079.61;1679770;84;22694;-82
2022/05/23 10:36:37;;;;;;;;;;;;;;;16.92;45.14;101074.28;1683864;82;20360;-82
2022/05/23 10:42:07;;;;;;;;;;;;;;;16.81;45.12;101072.86;1692654;83;20381;-82
2022/05/23 10:44:46;;;;;;;;;;;;;;;16.73;45.29;101075.94;1696900;82;20220;-82
2022/05/23 10:47:16;;;;;;;;;;;;;;;16.60;45.19;101074.98;1695686;83;21705;-83
2022/05/23 10:49:58;;;;;;;;;;;;;;;16.60;45.66;101078.52;1690034;84;21012;-82
2022/05/23 10:52:37;;;;;;;;;;;;;;;16.58;45.30;101077.63;1689156;84;20260;-83
2022/05/23 10:55:10;;;;;;;;;;;;;;;16.49;45.72;101077.13;1689865;84;20568;-82
2022/05/23 10:58:02;;;;;;;;;;;;;;;16.56;46.09;101077.18;1693443;84;20194;-83
2022/05/23 11:00:57;;;;;;;;;;;;;;;16.60;46.02;101076.31;1695337;84;22854;-83
2022/05/23 11:03:45;;;;;;;;;;;;;;;16.55;45.71;101078.05;1688159;84;20994;-82
2022/05/23 11:06:28;;;;;;;;;;;;;;;16.39;45.91;101073.09;1699650;84;20439;-82
2022/05/23 11:09:10;;;;;;;;;;;;;;;16.30;46.04;101066.82;1705649;84;20385;-83
2022/05/23 11:12:01;;;;;;;;;;;;;;;16.24;46.16;101063.26;1691692;84;20169;-82
2022/05/23 11:14:56;;;;;;;;;;;;;;;16.16;46.23;101065.86;1661636;84;20211;-83
2022/05/23 11:17:47;;;;;;;;;;;;;;;16.15;46.35;101058.76;1688891;83;20186;-83
2022/05/23 11:20:31;;;;;;;;;;;;;;;16.09;46.38;101059.60;1684359;84;20208;-83
2022/05/23 11:23:04;;;;;;;;;;;;;;;16.09;46.52;101053.41;1690298;84;20367;-83
2022/05/23 11:25:43;;;;;;;;;;;;;;;16.07;46.45;101054.72;1684833;84;20169;-83
2022/05/23 11:34:05;;;;;;;;;;;;;;;16.01;46.77;101050.70;1656017;84;20241;-83
2022/05/23 11:39:04;;;;;;;;;;;;;;;16.09;46.87;101065.36;1662875;84;20218;-83
2022/05/23 11:41:45;;;;;;;;;;;;;;;16.10;46.86;101051.19;1662215;84;21735;-82
2022/05/23 11:44:14;;;;;;;;;;;;;;;16.09;46.69;101045.45;1673498;84;20230;-83
2022/05/23 11:47:06;;;;;;;;;;;;;;;16.05;46.75;101044.53;1680381;84;20230;-83
2022/05/23 11:49:44;;;;;;;;;;;;;;;16.06;46.95;101036.12;1673390;84;20476;-82
2022/05/23 11:52:26;;;;;;;;;;;;;;;16.05;46.92;101041.00;1689340;84;20766;-83
2022/05/23 11:54:52;;;;;;;;;;;;;;;16.07;47.16;101045.43;1686023;84;22550;-83
2022/05/23 11:57:35;;;;;;;;;;;;;;;16.10;47.23;101033.92;1679862;84;20503;-82
2022/05/23 12:00:21;;;;;;;;;;;;;;;16.12;47.06;101048.10;1682457;83;20344;-82
2022/05/23 12:03:06;;;;;;;;;;;;;;;16.10;47.16;101040.16;1676048;84;20369;-83
2022/05/23 12:05:36;;;;;;;;;;;;;;;16.11;47.14;101036.60;1673405;84;20245;-83
2022/05/23 12:08:07;;;;;;;;;;;;;;;16.16;47.00;101043.70;1674682;84;22679;-82
2022/05/23 12:10:39;;;;;;;;;;;;;;;16.09;47.15;101034.82;1682482;84;20188;-83
2022/05/23 12:13:33;;;;;;;;;;;;;;;16.08;47.12;101033.91;1680685;84;20906;-82
2022/05/23 12:16:22;;;;;;;;;;;;;;;16.16;47.41;101038.39;1673316;84;20381;-83
2022/05/23 12:18:48;;;;;;;;;;;;;;;16.19;47.25;101033.11;1685242;84;20357;-83
2022/05/23 12:21:38;;;;;;;;;;;;;;;16.22;47.15;101034.47;1680513;84;21969;-83
2022/05/23 12:24:30;;;;;;;;;;;;;;;16.23;47.23;101023.83;1686615;82;20226;-83
2022/05/23 12:27:01;;;;;;;;;;;;;;;16.25;47.16;101025.17;1686231;83;20243;-83
2022/05/23 12:29:34;;;;;;;;;;;;;;;16.34;47.30;101017.27;1678934;82;21001;-82
2022/05/23 12:32:26;;;;;;;;;;;;;;;16.43;47.19;101023.95;1696823;84;20227;-83
2022/05/23 12:34:54;;;;;;;;;;;;;;;16.31;47.00;101001.30;1686690;84;21855;-82
2022/05/23 12:37:30;;;;;;;;;;;;;;;16.40;47.24;101027.03;1659609;82;21090;-81
2022/05/23 12:40:06;;;;;;;;;;;;;;;16.43;47.03;101009.34;1680736;84;20524;-82
2022/05/23 12:42:47;;;;;;;;;;;;;;;16.40;46.94;100997.81;1683715;84;20344;-82
2022/05/23 12:45:40;;;;;;;;;;;;;;;16.31;46.98;101011.50;1681386;83;20630;-83
2022/05/23 12:48:25;;;;;;;;;;;;;;;16.31;47.14;101002.62;1690733;84;22571;-83
2022/05/23 12:50:58;;;;;;;;;;;;;;;16.38;47.13;100998.24;1689568;84;20197;-81
2022/05/23 12:53:37;;;;;;;;;;;;;;;16.41;46.91;101000.48;1691219;84;20220;-82
2022/05/23 12:56:07;;;;;;;;;;;;;;;16.40;46.77;101000.02;1658832;84;20400;-82
2022/05/23 12:59:01;;;;;;;;;;;;;;;16.33;46.78;100996.91;1685427;84;20509;-82
2022/05/23 13:01:29;;;;;;;;;;;;;;;16.35;46.92;101000.45;1680203;84;21762;-84
2022/05/23 13:04:08;;;;;;;;;;;;;;;16.42;46.86;100992.97;1677660;84;20232;-84
2022/05/23 13:06:58;;;;;;;;;;;;;;;16.46;46.71;100993.84;1679599;83;20826;-84
2022/05/23 13:09:41;;;;;;;;;;;;;;;16.40;46.48;100993.37;1701592;82;20378;-83
2022/05/23 13:12:09;;;;;;;;;;;;;;;16.36;46.44;100986.72;1690317;82;20220;-82
2022/05/23 13:14:56;;;;;;;;;;;;;;;16.36;46.34;100974.32;1695159;84;23083;-83
2022/05/23 13:17:43;;;;;;;;;;;;;;;16.37;46.31;100980.09;1691035;83;20467;-83
2022/05/23 13:23:01;;;;;;;;;;;;;;;16.41;46.23;100975.23;1701220;83;20423;-81
2022/05/23 13:25:28;;;;;;;;;;;;;;;16.38;46.07;100971.23;1708135;81;20237;-82
2022/05/23 13:27:58;;;;;;;;;;;;;;;16.38;46.07;100982.30;1711334;83;21794;-82
2022/05/23 13:30:31;;;;;;;;;;;;;;;16.36;45.87;100988.93;1695880;83;20195;-82
2022/05/23 13:33:04;;;;;;;;;;;;;;;16.33;45.91;100975.66;1674828;83;20230;-83
2022/05/23 13:35:31;;;;;;;;;;;;;;;16.39;45.95;100970.81;1703035;83;20494;-83
2022/05/23 13:38:13;;;;;;;;;;;;;;;16.40;45.73;100965.48;1706494;81;20639;-83
2022/05/23 13:40:42;;;;;;;;;;;;;;;16.37;45.49;100963.24;1700210;83;22610;-83
2022/05/23 13:43:14;;;;;;;;;;;;;;;16.31;45.50;100965.43;1696215;83;20231;-84
2022/05/23 13:45:42;;;;;;;;;;;;;;;16.35;45.56;100961.94;1700175;81;20204;-82
2022/05/23 13:48:24;;;;;;;;;;;;;;;16.36;45.42;100968.13;1702570;83;20382;-83
2022/05/23 13:50:52;;;;;;;;;;;;;;;16.33;45.28;100965.91;1707338;81;20882;-83
2022/05/23 13:53:22;;;;;;;;;;;;;;;16.30;45.21;100961.89;1704221;83;21765;-83
2022/05/23 13:55:50;;;;;;;;;;;;;;;16.26;45.23;100955.25;1693438;83;20547;-83
2022/05/23 13:58:21;;;;;;;;;;;;;;;16.26;45.30;100953.47;1703383;83;20225;-84
2022/05/23 14:00:56;;;;;;;;;;;;;;;16.28;45.36;100954.36;1714680;83;20393;-83
2022/05/23 14:03:26;;;;;;;;;;;;;;;16.29;45.45;100955.23;1703868;83;20500;-82